Time;durP1;ratioP1;P1;durP2;ratioP2;P2;SDS_P1;SDS_P2;PMS_P1;PMS_P2;Temp;Humidity;BMP_temperature;BMP_pressure;BME280_temperature;BME280_humidity;BME280_pressure;Samples;Min_cycle;Max_cycle;Signal;HPM_P1;HPM_P2
2023/10/26 00:00:50;;;;;;;;;;;;;;;10.88;97.33;98592.13;5094068;28;19924;-63
2023/10/26 00:03:54;;;;;;;;;;;;;;;10.74;97.50;98601.13;5092888;28;20507;-63
2023/10/26 00:06:58;;;;;;;;;;;;;;;10.78;96.88;98596.47;5094490;28;19923;-63
2023/10/26 00:10:01;;;;;;;;;;;;;;;10.74;98.05;98603.75;5095821;28;20488;-63
2023/10/26 00:13:05;;;;;;;;;;;;;;;10.78;98.72;98601.69;5094395;28;20349;-63
2023/10/26 00:16:08;;;;;;;;;;;;;;;10.78;98.18;98606.94;5094803;28;19966;-63
2023/10/26 00:19:11;;;;;;;;;;;;;;;10.75;96.82;98615.03;5094707;28;19974;-64
2023/10/26 00:22:14;;;;;;;;;;;;;;;10.75;97.71;98615.84;5094597;28;19945;-64
2023/10/26 00:25:17;;;;;;;;;;;;;;;10.79;97.42;98606.81;5094756;28;20008;-64
2023/10/26 00:28:20;;;;;;;;;;;;;;;10.76;97.46;98616.69;5094331;28;19927;-64
2023/10/26 00:31:23;;;;;;;;;;;;;;;10.71;97.23;98614.44;5093364;28;20390;-64
2023/10/26 00:34:26;;;;;;;;;;;;;;;10.78;97.89;98614.75;5094705;28;20401;-64
2023/10/26 00:37:30;;;;;;;;;;;;;;;10.89;98.56;98617.31;5094206;28;19930;-64
2023/10/26 00:40:33;;;;;;;;;;;;;;;10.94;99.88;98628.22;5093736;28;19994;-64
2023/10/26 00:43:36;;;;;;;;;;;;;;;10.92;99.58;98627.53;5092128;28;19978;-64
2023/10/26 00:46:39;;;;;;;;;;;;;;;10.78;100.00;98633.88;5074257;28;20039;-64
2023/10/26 00:49:42;;;;;;;;;;;;;;;10.65;96.41;98635.88;5074932;28;20309;-64
2023/10/26 00:52:46;;;;;;;;;;;;;;;10.77;97.74;98634.84;5074945;28;19967;-64
2023/10/26 00:55:51;;;;;;;;;;;;;;;10.79;97.68;98638.19;5074829;28;19969;-64
2023/10/26 00:58:55;;;;;;;;;;;;;;;10.81;97.24;98651.94;5075061;28;19923;-64
2023/10/26 01:02:00;;;;;;;;;;;;;;;10.67;97.18;98660.09;5074728;28;20394;-64
2023/10/26 01:05:03;;;;;;;;;;;;;;;10.60;96.31;98658.97;5075033;28;19927;-64
2023/10/26 01:08:07;;;;;;;;;;;;;;;10.60;97.96;98664.19;5074602;28;20384;-64
2023/10/26 01:11:10;;;;;;;;;;;;;;;10.64;98.22;98661.19;5074250;28;19923;-64
2023/10/26 01:14:14;;;;;;;;;;;;;;;10.73;98.33;98659.59;5073549;28;20288;-64
2023/10/26 01:17:17;;;;;;;;;;;;;;;10.79;97.30;98658.28;5074425;28;20319;-64
2023/10/26 01:20:20;;;;;;;;;;;;;;;10.56;94.85;98667.97;5073414;28;20415;-64
2023/10/26 01:23:23;;;;;;;;;;;;;;;10.59;94.71;98663.34;5074244;28;19928;-64
2023/10/26 01:26:27;;;;;;;;;;;;;;;10.51;94.48;98659.72;5074286;28;20029;-64
2023/10/26 01:29:30;;;;;;;;;;;;;;;10.49;95.47;98659.81;5074242;28;19924;-65
2023/10/26 01:32:33;;;;;;;;;;;;;;;10.48;93.65;98661.59;5074133;28;19924;-64
2023/10/26 01:35:38;;;;;;;;;;;;;;;10.47;94.49;98651.28;5074075;28;19924;-64
2023/10/26 01:38:41;;;;;;;;;;;;;;;10.51;95.86;98662.31;5073409;28;19923;-64
2023/10/26 01:41:46;;;;;;;;;;;;;;;10.61;94.42;98671.88;5073167;28;20001;-64
2023/10/26 01:44:49;;;;;;;;;;;;;;;10.53;92.81;98663.00;5073934;28;19927;-64
2023/10/26 01:47:54;;;;;;;;;;;;;;;10.56;92.67;98662.75;5072998;28;19939;-64
2023/10/26 01:50:57;;;;;;;;;;;;;;;10.61;92.68;98663.22;5074126;28;19923;-64
2023/10/26 01:54:00;;;;;;;;;;;;;;;10.58;93.59;98663.47;5072828;28;19923;-64
2023/10/26 01:57:03;;;;;;;;;;;;;;;10.63;93.34;98662.16;5072695;28;20007;-64
2023/10/26 02:00:08;;;;;;;;;;;;;;;10.68;92.58;98659.97;5072629;28;20407;-64
2023/10/26 02:03:18;;;;;;;;;;;;;;;10.59;93.16;98667.72;5073658;28;20112;-64
2023/10/26 02:06:21;;;;;;;;;;;;;;;10.63;92.74;98680.44;5073518;28;19922;-64
2023/10/26 02:09:23;;;;;;;;;;;;;;;10.59;92.67;98675.56;5072470;28;19923;-64
2023/10/26 02:12:26;;;;;;;;;;;;;;;10.59;92.61;98680.81;5072720;28;19923;-64
2023/10/26 02:15:30;;;;;;;;;;;;;;;10.58;92.34;98682.59;5072516;28;19977;-64
2023/10/26 02:18:32;;;;;;;;;;;;;;;10.58;92.98;98687.81;5072485;28;19969;-64
2023/10/26 02:21:35;;;;;;;;;;;;;;;10.57;92.98;98690.56;5073137;28;19941;-64
2023/10/26 02:24:40;;;;;;;;;;;;;;;10.67;92.85;98697.53;5073121;28;20031;-64
2023/10/26 02:27:43;;;;;;;;;;;;;;;10.62;92.30;98699.66;5072043;28;20287;-64
2023/10/26 02:30:46;;;;;;;;;;;;;;;10.60;92.70;98700.78;5072107;28;19939;-64
2023/10/26 02:33:49;;;;;;;;;;;;;;;10.52;92.72;98703.16;5073087;28;19928;-64
2023/10/26 02:36:52;;;;;;;;;;;;;;;10.61;93.26;98707.66;5073053;28;20058;-64
2023/10/26 02:39:54;;;;;;;;;;;;;;;10.64;93.20;98700.38;5072055;28;19923;-64
2023/10/26 02:42:57;;;;;;;;;;;;;;;10.61;92.92;98708.47;5072841;28;19966;-64
2023/10/26 02:46:02;;;;;;;;;;;;;;;10.61;93.52;98702.41;5072981;28;19939;-64
2023/10/26 02:49:05;;;;;;;;;;;;;;;10.63;93.78;98711.81;5072832;28;19939;-64
2023/10/26 02:52:07;;;;;;;;;;;;;;;10.59;94.47;98714.78;5072128;28;20408;-64
2023/10/26 02:55:12;;;;;;;;;;;;;;;10.56;94.61;98699.34;5072776;28;19924;-64
2023/10/26 02:58:15;;;;;;;;;;;;;;;10.49;94.86;98706.84;5071753;28;19932;-64
2023/10/26 03:01:18;;;;;;;;;;;;;;;10.64;94.35;98707.41;5072760;28;19931;-64
2023/10/26 03:04:21;;;;;;;;;;;;;;;10.70;94.20;98701.69;5071681;28;19927;-64
2023/10/26 03:07:24;;;;;;;;;;;;;;;10.70;94.43;98704.28;5071799;28;20027;-64
2023/10/26 03:10:28;;;;;;;;;;;;;;;10.73;94.59;98698.00;5072624;28;19977;-64
2023/10/26 03:13:31;;;;;;;;;;;;;;;10.76;94.99;98690.72;5072827;28;20005;-64
2023/10/26 03:16:34;;;;;;;;;;;;;;;10.81;96.08;98693.75;5071719;28;19923;-64
2023/10/26 03:19:38;;;;;;;;;;;;;;;10.83;96.61;98691.03;5072608;28;19999;-64
2023/10/26 03:22:41;;;;;;;;;;;;;;;10.85;96.70;98699.59;5072637;28;20260;-64
2023/10/26 03:25:44;;;;;;;;;;;;;;;10.58;93.95;98702.66;5072508;28;19928;-64
2023/10/26 03:28:51;;;;;;;;;;;;;;;10.55;93.35;98688.06;5072315;28;20438;-64
2023/10/26 03:31:54;;;;;;;;;;;;;;;10.59;94.05;98692.09;5072506;28;20251;-64
2023/10/26 03:35:00;;;;;;;;;;;;;;;10.53;94.26;98696.97;5076427;28;20397;-64
2023/10/26 03:38:03;;;;;;;;;;;;;;;10.58;94.49;98698.28;5076361;28;19923;-64
2023/10/26 03:41:09;;;;;;;;;;;;;;;10.63;94.89;98688.28;5075739;28;19923;-64
2023/10/26 03:44:13;;;;;;;;;;;;;;;10.68;94.77;98683.50;5075217;28;20403;-63
2023/10/26 03:47:17;;;;;;;;;;;;;;;10.68;94.61;98693.13;5075257;28;19979;-64
2023/10/26 03:50:22;;;;;;;;;;;;;;;10.62;95.31;98691.00;5075278;28;19985;-64
2023/10/26 03:53:25;;;;;;;;;;;;;;;10.70;94.26;98686.00;5075413;28;19939;-64
2023/10/26 03:56:29;;;;;;;;;;;;;;;10.75;94.58;98694.28;5075860;28;20010;-64
2023/10/26 03:59:31;;;;;;;;;;;;;;;10.72;94.59;98694.56;5075065;28;20402;-64
2023/10/26 04:02:34;;;;;;;;;;;;;;;10.64;94.84;98696.94;5074848;28;20403;-64
2023/10/26 04:05:37;;;;;;;;;;;;;;;10.60;92.81;98700.78;5075716;28;19927;-64
2023/10/26 04:08:40;;;;;;;;;;;;;;;10.71;93.57;98698.09;5075704;28;20296;-64
2023/10/26 04:11:45;;;;;;;;;;;;;;;10.54;93.59;98712.53;5075705;28;19950;-64
2023/10/26 04:14:47;;;;;;;;;;;;;;;10.52;94.65;98708.38;5075076;28;20011;-64
2023/10/26 04:17:50;;;;;;;;;;;;;;;10.46;94.25;98707.09;5075545;28;19961;-63
2023/10/26 04:20:53;;;;;;;;;;;;;;;10.45;93.70;98713.28;5075609;28;19970;-64
2023/10/26 04:23:56;;;;;;;;;;;;;;;10.41;93.07;98712.72;5075180;28;19930;-64
2023/10/26 04:26:59;;;;;;;;;;;;;;;10.43;94.04;98702.97;5075044;28;19923;-64
2023/10/26 04:30:02;;;;;;;;;;;;;;;10.47;92.80;98695.72;5075355;28;19971;-64
2023/10/26 04:33:07;;;;;;;;;;;;;;;10.47;93.66;98700.94;5075303;28;19967;-64
2023/10/26 04:36:11;;;;;;;;;;;;;;;10.45;93.03;98703.66;5075330;28;19924;-64
2023/10/26 04:39:15;;;;;;;;;;;;;;;10.66;92.56;98695.03;5075083;28;19940;-64
2023/10/26 04:42:19;;;;;;;;;;;;;;;10.75;93.60;98696.88;5074577;28;19927;-64
2023/10/26 04:45:22;;;;;;;;;;;;;;;10.81;96.21;98704.22;5074090;28;20046;-63
2023/10/26 04:48:25;;;;;;;;;;;;;;;10.58;95.04;98697.44;5075010;28;20403;-63
2023/10/26 04:51:28;;;;;;;;;;;;;;;10.65;93.90;98703.81;5075313;28;20398;-63
2023/10/26 04:54:31;;;;;;;;;;;;;;;10.58;92.90;98697.44;5074940;28;19939;-63
2023/10/26 04:57:34;;;;;;;;;;;;;;;10.51;93.16;98699.72;5074719;28;19958;-64
2023/10/26 05:00:38;;;;;;;;;;;;;;;10.59;94.26;98699.09;5074163;28;19970;-64
2023/10/26 05:03:41;;;;;;;;;;;;;;;10.45;94.37;98698.44;5074570;28;20017;-64
2023/10/26 05:06:44;;;;;;;;;;;;;;;10.59;93.46;98701.72;5074706;28;20343;-64
2023/10/26 05:09:47;;;;;;;;;;;;;;;10.53;93.96;98691.75;5074630;28;19939;-64
2023/10/26 05:12:50;;;;;;;;;;;;;;;10.63;93.61;98690.06;5074494;28;20406;-64
2023/10/26 05:15:53;;;;;;;;;;;;;;;10.60;93.64;98695.53;5074511;28;19923;-64
2023/10/26 05:18:56;;;;;;;;;;;;;;;10.78;95.43;98694.00;5074743;28;19939;-64
2023/10/26 05:21:59;;;;;;;;;;;;;;;10.74;94.34;98695.22;5074481;28;19923;-64
2023/10/26 05:25:05;;;;;;;;;;;;;;;10.65;92.98;98685.53;5073086;28;20379;-64
2023/10/26 05:28:08;;;;;;;;;;;;;;;10.76;92.19;98682.88;5073595;28;20005;-64
2023/10/26 05:31:10;;;;;;;;;;;;;;;10.79;94.69;98682.63;5073382;28;19927;-64
2023/10/26 05:34:13;;;;;;;;;;;;;;;10.63;92.92;98690.91;5075007;28;19931;-64
2023/10/26 05:37:16;;;;;;;;;;;;;;;10.45;96.17;98698.44;5083622;28;19926;-64
2023/10/26 05:40:19;;;;;;;;;;;;;;;10.58;96.09;98692.22;5079913;28;20431;-63
2023/10/26 05:43:22;;;;;;;;;;;;;;;10.39;94.06;98688.47;5090503;28;19928;-63
2023/10/26 05:46:27;;;;;;;;;;;;;;;10.51;92.84;98678.00;5087938;28;20493;-63
2023/10/26 05:49:30;;;;;;;;;;;;;;;10.59;92.36;98688.63;5089132;28;19924;-64
2023/10/26 05:52:33;;;;;;;;;;;;;;;10.68;94.57;98687.88;5073930;28;20280;-64
2023/10/26 05:55:37;;;;;;;;;;;;;;;10.77;95.29;98687.13;5074302;28;19946;-64
2023/10/26 05:58:40;;;;;;;;;;;;;;;10.71;96.82;98687.63;5074492;28;19978;-64
2023/10/26 06:01:43;;;;;;;;;;;;;;;10.72;98.38;98689.31;5084782;28;19985;-64
2023/10/26 06:04:46;;;;;;;;;;;;;;;10.75;98.26;98699.50;5077003;28;20338;-64
2023/10/26 06:07:49;;;;;;;;;;;;;;;10.64;96.33;98696.94;5073571;28;20007;-64
2023/10/26 06:10:52;;;;;;;;;;;;;;;10.66;94.40;98700.28;5085816;28;19969;-64
2023/10/26 06:13:55;;;;;;;;;;;;;;;10.74;97.40;98692.63;5071674;28;20024;-64
2023/10/26 06:16:58;;;;;;;;;;;;;;;10.44;98.84;98698.56;5073366;28;19939;-64
2023/10/26 06:20:01;;;;;;;;;;;;;;;10.54;99.28;98707.31;5086602;28;20016;-64
2023/10/26 06:23:03;;;;;;;;;;;;;;;10.40;97.12;98700.59;5092332;28;19931;-63
2023/10/26 06:26:07;;;;;;;;;;;;;;;10.57;96.25;98701.03;5092151;28;19984;-63
2023/10/26 06:29:10;;;;;;;;;;;;;;;10.33;96.87;98711.66;5091845;28;20288;-63
2023/10/26 06:32:13;;;;;;;;;;;;;;;10.54;97.13;98714.34;5091890;28;20389;-63
2023/10/26 06:35:15;;;;;;;;;;;;;;;10.45;95.67;98715.91;5091771;28;19940;-63
2023/10/26 06:38:20;;;;;;;;;;;;;;;10.48;94.68;98716.47;5090367;28;20460;-63
2023/10/26 06:41:23;;;;;;;;;;;;;;;10.68;94.94;98720.09;5084419;28;20011;-64
2023/10/26 06:44:27;;;;;;;;;;;;;;;10.74;94.12;98718.75;5071383;28;19974;-64
2023/10/26 06:47:30;;;;;;;;;;;;;;;10.62;95.54;98717.13;5071518;28;20455;-64
2023/10/26 06:50:34;;;;;;;;;;;;;;;10.76;96.76;98718.66;5071560;28;20288;-64
2023/10/26 06:53:37;;;;;;;;;;;;;;;10.81;97.06;98724.31;5071526;28;20308;-64
2023/10/26 06:56:39;;;;;;;;;;;;;;;10.81;97.68;98712.06;5075670;28;19980;-64
2023/10/26 06:59:42;;;;;;;;;;;;;;;10.83;98.17;98723.25;5091537;28;19923;-64
2023/10/26 07:02:46;;;;;;;;;;;;;;;10.81;98.86;98730.38;5074568;28;19930;-64
2023/10/26 07:05:49;;;;;;;;;;;;;;;10.81;98.45;98716.47;5071327;28;19924;-64
2023/10/26 07:08:51;;;;;;;;;;;;;;;10.76;98.02;98711.63;5070541;28;19962;-64
2023/10/26 07:11:54;;;;;;;;;;;;;;;10.80;98.97;98699.13;5071264;28;19924;-64
2023/10/26 07:14:59;;;;;;;;;;;;;;;10.80;99.53;98707.81;5070820;28;19951;-64
2023/10/26 07:18:03;;;;;;;;;;;;;;;10.82;99.41;98698.06;5071301;28;20402;-63
2023/10/26 07:21:07;;;;;;;;;;;;;;;10.84;99.61;98703.97;5071243;28;20407;-63
2023/10/26 07:24:10;;;;;;;;;;;;;;;10.86;99.93;98701.25;5071247;28;19943;-63
2023/10/26 07:27:13;;;;;;;;;;;;;;;10.93;99.82;98690.13;5071199;28;20063;-64
2023/10/26 07:30:17;;;;;;;;;;;;;;;10.94;99.29;98704.91;5070122;28;20356;-63
2023/10/26 07:33:20;;;;;;;;;;;;;;;10.88;99.38;98701.94;5070852;28;19969;-64
2023/10/26 07:36:25;;;;;;;;;;;;;;;10.97;98.45;98689.88;5070382;28;19943;-64
2023/10/26 07:39:31;;;;;;;;;;;;;;;10.85;98.11;98684.72;5070709;28;19927;-64
2023/10/26 07:42:34;;;;;;;;;;;;;;;10.97;97.97;98680.25;5084762;28;19942;-64
2023/10/26 07:45:37;;;;;;;;;;;;;;;10.83;97.97;98681.41;5081731;28;20284;-64
2023/10/26 07:48:40;;;;;;;;;;;;;;;10.82;96.14;98673.72;5070186;28;19938;-63
2023/10/26 07:51:43;;;;;;;;;;;;;;;11.05;96.29;98674.41;5084784;28;20341;-63
2023/10/26 07:54:46;;;;;;;;;;;;;;;11.20;95.26;98667.03;5070300;28;19967;-64
2023/10/26 07:57:50;;;;;;;;;;;;;;;11.24;95.08;98664.03;5083096;28;19927;-64
2023/10/26 08:00:53;;;;;;;;;;;;;;;10.94;92.37;98657.81;5070613;28;19975;-64
2023/10/26 08:04:15;;;;;;;;;;;;;;;10.87;90.53;98656.66;5070582;28;20363;-64
2023/10/26 08:07:37;;;;;;;;;;;;;;;10.81;94.69;98672.84;5070859;28;20330;-64
2023/10/26 08:11:08;;;;;;;;;;;;;;;11.07;95.85;98677.69;5070818;28;20445;-64
2023/10/26 08:14:11;;;;;;;;;;;;;;;10.93;91.51;98666.59;5070662;28;19930;-64
2023/10/26 08:17:16;;;;;;;;;;;;;;;11.06;91.04;98670.81;5070779;28;20387;-65
2023/10/26 08:20:19;;;;;;;;;;;;;;;11.24;94.58;98678.91;5073642;28;20399;-74
2023/10/26 08:23:23;;;;;;;;;;;;;;;11.11;85.63;98673.88;5073897;28;20387;-64
2023/10/26 08:26:27;;;;;;;;;;;;;;;11.01;83.77;98678.22;5074384;28;19923;-64
2023/10/26 08:29:31;;;;;;;;;;;;;;;11.11;84.44;98685.19;5073469;28;19923;-65
2023/10/26 08:32:37;;;;;;;;;;;;;;;11.28;86.93;98686.38;5074710;28;20004;-65
2023/10/26 08:35:47;;;;;;;;;;;;;;;11.24;84.97;98692.00;5074129;28;19940;-66
2023/10/26 08:38:51;;;;;;;;;;;;;;;11.38;84.00;98689.84;5084079;28;19927;-64
2023/10/26 08:41:58;;;;;;;;;;;;;;;11.31;83.61;98698.38;5092951;28;19970;-65
2023/10/26 08:45:02;;;;;;;;;;;;;;;11.30;83.93;98704.56;5093542;28;19927;-65
2023/10/26 08:48:07;;;;;;;;;;;;;;;11.50;83.26;98715.97;5091205;28;19923;-66
2023/10/26 08:51:10;;;;;;;;;;;;;;;11.56;82.04;98726.72;5091887;28;19962;-65
2023/10/26 08:54:14;;;;;;;;;;;;;;;11.65;81.69;98725.13;5092404;28;20375;-66
2023/10/26 08:57:19;;;;;;;;;;;;;;;11.70;80.79;98729.97;5093422;28;20271;-66
2023/10/26 09:00:26;;;;;;;;;;;;;;;11.62;81.19;98738.47;5093619;28;19938;-66
2023/10/26 09:03:32;;;;;;;;;;;;;;;11.68;80.19;98735.34;5090960;28;19945;-65
2023/10/26 09:06:45;;;;;;;;;;;;;;;11.63;78.93;98751.44;5092447;28;20025;-65
2023/10/26 09:09:49;;;;;;;;;;;;;;;11.67;80.42;98749.38;5091299;28;19923;-65
2023/10/26 09:12:59;;;;;;;;;;;;;;;11.75;80.49;98740.88;5091762;28;20028;-65
2023/10/26 09:16:03;;;;;;;;;;;;;;;11.78;79.87;98730.97;5093143;28;20018;-65
2023/10/26 09:19:07;;;;;;;;;;;;;;;11.70;79.70;98743.88;5091194;28;20028;-65
2023/10/26 09:22:17;;;;;;;;;;;;;;;11.61;78.27;98734.19;5091909;28;19923;-65
2023/10/26 09:25:21;;;;;;;;;;;;;;;11.72;79.34;98741.16;5092719;28;19927;-65
2023/10/26 09:28:26;;;;;;;;;;;;;;;11.74;79.43;98739.19;5090683;28;19942;-65
2023/10/26 09:31:29;;;;;;;;;;;;;;;11.84;78.44;98733.09;5092424;28;19943;-65
2023/10/26 09:34:42;;;;;;;;;;;;;;;11.79;78.84;98716.91;5080869;28;19924;-65
2023/10/26 09:37:50;;;;;;;;;;;;;;;11.96;78.10;98712.84;5093437;28;19923;-65
2023/10/26 09:40:54;;;;;;;;;;;;;;;11.82;77.57;98723.69;5093403;28;19923;-65
2023/10/26 09:43:57;;;;;;;;;;;;;;;11.79;76.90;98724.75;5093826;28;19927;-65
2023/10/26 09:47:01;;;;;;;;;;;;;;;11.86;76.92;98723.28;5073235;28;19923;-65
2023/10/26 09:50:06;;;;;;;;;;;;;;;11.85;77.71;98720.81;5092504;28;19925;-66
2023/10/26 09:53:09;;;;;;;;;;;;;;;12.09;77.61;98728.34;5090049;28;20299;-66
2023/10/26 09:56:17;;;;;;;;;;;;;;;12.09;76.25;98728.34;5089395;28;20053;-66
2023/10/26 09:59:21;;;;;;;;;;;;;;;12.23;77.66;98735.84;5091344;28;20018;-66
2023/10/26 10:02:24;;;;;;;;;;;;;;;12.17;76.86;98725.88;5090747;28;20424;-65
2023/10/26 10:05:37;;;;;;;;;;;;;;;12.28;77.24;98733.66;5090072;28;20046;-64
2023/10/26 10:09:00;;;;;;;;;;;;;;;12.00;75.97;98718.69;5092721;28;19923;-65
2023/10/26 10:12:12;;;;;;;;;;;;;;;11.99;75.50;98709.97;5092258;28;20061;-65
2023/10/26 10:15:17;;;;;;;;;;;;;;;11.95;75.29;98715.63;5092543;28;19923;-64
2023/10/26 10:18:21;;;;;;;;;;;;;;;12.00;74.27;98697.72;5092469;28;20015;-64
2023/10/26 10:21:33;;;;;;;;;;;;;;;12.02;75.17;98707.09;5092680;28;19923;-62
2023/10/26 10:24:39;;;;;;;;;;;;;;;12.09;74.62;98700.38;5092346;28;20303;-65
2023/10/26 10:27:48;;;;;;;;;;;;;;;11.94;73.93;98704.31;5092072;28;19922;-66
2023/10/26 10:30:57;;;;;;;;;;;;;;;11.87;73.97;98703.19;5092360;28;20007;-64
2023/10/26 10:34:02;;;;;;;;;;;;;;;11.96;74.89;98706.78;5092414;28;19923;-64
2023/10/26 10:37:09;;;;;;;;;;;;;;;12.14;74.91;98691.28;5092565;28;20386;-64
2023/10/26 10:40:14;;;;;;;;;;;;;;;12.21;74.43;98690.59;5092264;28;20581;-64
2023/10/26 10:43:17;;;;;;;;;;;;;;;12.10;74.44;98688.09;5092421;28;19985;-64
2023/10/26 10:46:26;;;;;;;;;;;;;;;12.11;74.21;98700.22;5091468;28;19939;-65
2023/10/26 10:49:30;;;;;;;;;;;;;;;12.25;74.64;98673.66;5092266;28;19970;-64
2023/10/26 10:52:33;;;;;;;;;;;;;;;12.16;73.84;98684.94;5092358;28;19923;-65
2023/10/26 10:55:45;;;;;;;;;;;;;;;12.20;74.06;98683.69;5092895;28;20014;-65
2023/10/26 10:58:53;;;;;;;;;;;;;;;12.13;73.97;98703.53;5093001;28;19923;-65
2023/10/26 11:02:06;;;;;;;;;;;;;;;11.99;75.32;98702.09;5091953;28;19923;-65
2023/10/26 11:05:10;;;;;;;;;;;;;;;11.92;75.84;98687.91;5091966;28;19927;-66
2023/10/26 11:08:12;;;;;;;;;;;;;;;11.99;76.33;98680.34;5092213;28;20027;-66
2023/10/26 11:11:26;;;;;;;;;;;;;;;12.04;75.99;98665.06;5091526;28;19952;-66
2023/10/26 11:14:29;;;;;;;;;;;;;;;12.20;76.09;98667.16;5091794;28;19923;-66
2023/10/26 11:17:32;;;;;;;;;;;;;;;12.39;75.38;98671.59;5091691;28;20291;-66
2023/10/26 11:20:37;;;;;;;;;;;;;;;12.65;77.73;98667.44;5091907;28;20047;-67
2023/10/26 11:23:40;;;;;;;;;;;;;;;12.38;76.93;98655.03;5091624;28;19928;-68
2023/10/26 11:27:05;;;;;;;;;;;;;;;12.41;77.80;98657.38;5092141;28;19923;-67
2023/10/26 11:30:09;;;;;;;;;;;;;;;12.39;76.83;98661.09;5090518;28;20036;-67
2023/10/26 11:33:33;;;;;;;;;;;;;;;12.46;79.10;98656.97;5091579;28;19923;-66
2023/10/26 11:36:38;;;;;;;;;;;;;;;12.62;78.65;98657.22;5092303;28;19985;-68
2023/10/26 11:39:49;;;;;;;;;;;;;;;12.53;76.31;98658.06;5092293;28;19938;-66
2023/10/26 11:42:55;;;;;;;;;;;;;;;12.22;77.84;98645.09;5092187;28;20019;-67
2023/10/26 11:46:21;;;;;;;;;;;;;;;12.18;77.67;98638.44;5091943;28;19939;-68
2023/10/26 11:49:43;;;;;;;;;;;;;;;12.32;78.76;98643.31;5090820;28;19923;-68
2023/10/26 11:52:52;;;;;;;;;;;;;;;12.60;79.34;98643.41;5088883;28;20000;-68
2023/10/26 11:56:01;;;;;;;;;;;;;;;12.79;78.12;98642.56;5093393;28;19923;-69
2023/10/26 11:59:04;;;;;;;;;;;;;;;12.71;77.41;98626.72;5095559;28;19961;-67
2023/10/26 12:02:08;;;;;;;;;;;;;;;12.67;76.89;98623.56;5094691;28;20344;-67
2023/10/26 12:05:13;;;;;;;;;;;;;;;12.61;79.05;98618.88;5095577;28;19981;-67
2023/10/26 12:08:16;;;;;;;;;;;;;;;12.52;78.54;98630.19;5095036;28;20352;-67
2023/10/26 12:11:19;;;;;;;;;;;;;;;12.44;78.55;98637.91;5095319;28;19985;-67
2023/10/26 12:14:24;;;;;;;;;;;;;;;12.47;78.45;98633.22;5094896;28;19923;-68
2023/10/26 12:17:27;;;;;;;;;;;;;;;12.55;79.77;98645.66;5095231;28;20056;-66
2023/10/26 12:20:31;;;;;;;;;;;;;;;12.61;78.96;98647.72;5095180;28;20018;-67
2023/10/26 12:23:34;;;;;;;;;;;;;;;12.55;78.51;98637.78;5094586;28;19927;-67
2023/10/26 12:26:37;;;;;;;;;;;;;;;12.54;79.71;98633.50;5094984;28;19927;-70
2023/10/26 12:29:40;;;;;;;;;;;;;;;12.41;80.94;98632.94;5094413;28;19923;-65
2023/10/26 12:32:43;;;;;;;;;;;;;;;12.49;82.12;98633.91;5094669;28;20058;-67
2023/10/26 12:35:47;;;;;;;;;;;;;;;12.41;81.04;98635.56;5094480;28;19969;-65
2023/10/26 12:38:50;;;;;;;;;;;;;;;12.46;80.65;98633.38;5094604;28;20011;-65
2023/10/26 12:41:52;;;;;;;;;;;;;;;12.72;78.96;98623.94;5094005;28;19965;-66
2023/10/26 12:48:44;;;;;;;;;;;;;;;12.69;79.70;98621.63;5093727;28;19939;-66
2023/10/26 12:51:47;;;;;;;;;;;;;;;12.74;78.25;98610.72;5094081;28;19931;-66
2023/10/26 12:54:50;;;;;;;;;;;;;;;12.89;78.42;98605.84;5092789;28;19980;-66
2023/10/26 12:57:53;;;;;;;;;;;;;;;12.95;78.29;98605.28;5090035;28;19923;-66
2023/10/26 13:00:56;;;;;;;;;;;;;;;12.82;80.86;98600.34;5093645;28;19922;-66
2023/10/26 13:04:00;;;;;;;;;;;;;;;12.61;83.12;98592.66;5090692;28;19976;-66
2023/10/26 13:07:03;;;;;;;;;;;;;;;12.62;83.45;98580.38;5090867;28;19923;-65
2023/10/26 13:10:07;;;;;;;;;;;;;;;12.58;82.71;98571.97;5091800;28;19923;-65
2023/10/26 13:13:10;;;;;;;;;;;;;;;12.64;83.34;98573.19;5094016;28;19968;-65
2023/10/26 13:16:14;;;;;;;;;;;;;;;12.53;83.65;98574.16;5092864;28;19922;-65
2023/10/26 13:19:17;;;;;;;;;;;;;;;12.79;82.91;98556.88;5092589;28;19973;-65
2023/10/26 13:22:20;;;;;;;;;;;;;;;12.92;81.01;98558.34;5093664;28;20072;-65
2023/10/26 13:25:25;;;;;;;;;;;;;;;12.83;80.42;98559.19;5093037;28;19927;-65
2023/10/26 13:28:28;;;;;;;;;;;;;;;12.93;80.22;98562.63;5093198;28;19923;-65
2023/10/26 13:31:32;;;;;;;;;;;;;;;13.02;80.23;98559.16;5092731;28;20341;-66
2023/10/26 13:34:35;;;;;;;;;;;;;;;12.91;79.40;98552.28;5090658;28;20382;-66
2023/10/26 13:37:38;;;;;;;;;;;;;;;12.52;79.92;98549.75;5090685;28;19923;-66
2023/10/26 13:40:43;;;;;;;;;;;;;;;12.67;81.75;98557.19;5091463;28;19923;-67
2023/10/26 13:43:47;;;;;;;;;;;;;;;12.82;81.18;98552.31;5092110;28;19927;-67
2023/10/26 13:46:50;;;;;;;;;;;;;;;12.81;81.01;98554.09;5091601;28;20006;-66
2023/10/26 13:49:54;;;;;;;;;;;;;;;12.96;83.04;98560.56;5092019;28;19923;-65
2023/10/26 13:52:58;;;;;;;;;;;;;;;12.96;82.89;98551.88;5088992;28;19977;-65
2023/10/26 13:56:01;;;;;;;;;;;;;;;13.04;83.72;98558.03;5090181;28;20050;-67
2023/10/26 13:59:07;;;;;;;;;;;;;;;12.91;83.21;98548.81;5092043;28;19931;-65
2023/10/26 14:02:11;;;;;;;;;;;;;;;12.83;81.22;98551.31;5091881;28;19924;-65
2023/10/26 14:05:15;;;;;;;;;;;;;;;12.89;82.45;98556.84;5070972;28;19931;-65
2023/10/26 14:08:19;;;;;;;;;;;;;;;12.91;84.29;98552.28;5071777;28;19927;-64
2023/10/26 14:11:26;;;;;;;;;;;;;;;12.90;85.83;98555.06;5071478;28;20384;-66
2023/10/26 14:14:33;;;;;;;;;;;;;;;12.91;86.44;98554.06;5071809;28;19927;-66
2023/10/26 14:17:39;;;;;;;;;;;;;;;12.84;88.22;98551.19;5071228;28;19961;-66
2023/10/26 14:20:42;;;;;;;;;;;;;;;12.71;88.67;98545.44;5071742;28;20015;-67
2023/10/26 14:23:44;;;;;;;;;;;;;;;12.73;88.26;98543.47;5071671;28;19926;-66
2023/10/26 14:26:47;;;;;;;;;;;;;;;12.73;90.32;98546.97;5072449;28;20073;-66
2023/10/26 14:29:50;;;;;;;;;;;;;;;12.70;91.41;98542.00;5071847;28;19971;-65
2023/10/26 14:32:53;;;;;;;;;;;;;;;12.70;90.46;98534.13;5072111;28;19974;-65
2023/10/26 14:35:57;;;;;;;;;;;;;;;12.75;92.25;98529.28;5072204;28;19923;-68
2023/10/26 14:39:00;;;;;;;;;;;;;;;12.72;93.36;98520.88;5072692;28;20296;-67
2023/10/26 14:42:04;;;;;;;;;;;;;;;12.57;93.75;98528.34;5070880;28;19924;-68
2023/10/26 14:45:07;;;;;;;;;;;;;;;12.63;93.92;98525.16;5072083;28;19927;-66
2023/10/26 14:48:10;;;;;;;;;;;;;;;12.52;96.77;98522.72;5071139;28;19973;-66
2023/10/26 14:51:13;;;;;;;;;;;;;;;12.58;96.38;98527.41;5072129;28;19974;-66
2023/10/26 14:54:17;;;;;;;;;;;;;;;12.63;94.14;98521.72;5071883;28;20020;-67
2023/10/26 14:57:19;;;;;;;;;;;;;;;12.65;93.74;98528.47;5071361;28;19924;-67
2023/10/26 15:00:23;;;;;;;;;;;;;;;12.62;94.33;98528.75;5072005;28;20299;-67
2023/10/26 15:03:26;;;;;;;;;;;;;;;12.56;94.38;98527.53;5070717;28;19928;-66
2023/10/26 15:06:29;;;;;;;;;;;;;;;12.55;94.58;98530.31;5071774;28;20397;-66
2023/10/26 15:09:34;;;;;;;;;;;;;;;12.60;94.87;98528.06;5071834;28;20292;-76
2023/10/26 15:12:39;;;;;;;;;;;;;;;12.41;97.11;98518.47;5071127;28;19963;-72
2023/10/26 15:15:43;;;;;;;;;;;;;;;12.54;94.65;98524.25;5072104;28;19962;-66
2023/10/26 15:18:46;;;;;;;;;;;;;;;12.59;91.93;98518.56;5071628;28;19927;-66
2023/10/26 15:21:49;;;;;;;;;;;;;;;12.64;92.99;98518.16;5070281;28;19926;-66
2023/10/26 15:24:52;;;;;;;;;;;;;;;12.48;91.28;98514.31;5071430;28;20336;-66
2023/10/26 15:27:55;;;;;;;;;;;;;;;12.54;91.04;98513.75;5071569;28;20018;-66
2023/10/26 15:30:58;;;;;;;;;;;;;;;12.58;91.19;98519.53;5075620;28;20013;-66
2023/10/26 15:34:02;;;;;;;;;;;;;;;12.57;90.33;98512.63;5075698;28;19969;-66
2023/10/26 15:37:05;;;;;;;;;;;;;;;12.53;91.23;98519.13;5075939;28;19970;-67
2023/10/26 15:40:11;;;;;;;;;;;;;;;12.47;91.44;98512.63;5075566;28;20351;-67
2023/10/26 15:43:14;;;;;;;;;;;;;;;12.43;91.49;98520.94;5075428;28;19927;-66
2023/10/26 15:46:17;;;;;;;;;;;;;;;12.41;91.98;98517.63;5075598;28;20395;-66
2023/10/26 15:49:21;;;;;;;;;;;;;;;12.42;92.09;98506.19;5075198;28;20072;-66
2023/10/26 15:52:24;;;;;;;;;;;;;;;12.19;93.52;98511.75;5075438;28;19931;-68
2023/10/26 15:55:29;;;;;;;;;;;;;;;12.20;93.25;98502.91;5075022;28;19938;-66
2023/10/26 15:58:32;;;;;;;;;;;;;;;12.23;93.96;98500.00;5075135;28;19927;-66
2023/10/26 16:01:35;;;;;;;;;;;;;;;12.28;93.86;98515.28;5074960;28;19923;-66
2023/10/26 16:04:38;;;;;;;;;;;;;;;12.29;93.94;98525.66;5075098;28;19927;-67